sensor_id;sensor_type;location;lat;lon;timestamp;temperature;humidity
21184;DHT22;18176;49.502;11.754;2022-12-19T00:01:58;-7.60;99.90
21184;DHT22;18176;49.502;11.754;2022-12-19T00:06:00;-7.60;99.90
21184;DHT22;18176;49.502;11.754;2022-12-19T00:10:01;-7.50;99.90
21184;DHT22;18176;49.502;11.754;2022-12-19T00:14:05;-7.50;99.90
21184;DHT22;18176;49.502;11.754;2022-12-19T00:18:08;-7.60;99.90
21184;DHT22;18176;49.502;11.754;2022-12-19T00:22:08;-7.50;99.90
21184;DHT22;18176;49.502;11.754;2022-12-19T00:26:09;-7.50;99.90
21184;DHT22;18176;49.502;11.754;2022-12-19T00:30:18;-7.50;99.90
21184;DHT22;18176;49.502;11.754;2022-12-19T00:34:19;-7.50;99.90
21184;DHT22;18176;49.502;11.754;2022-12-19T00:38:19;-7.40;99.90
21184;DHT22;18176;49.502;11.754;2022-12-19T00:42:19;-7.40;99.90
21184;DHT22;18176;49.502;11.754;2022-12-19T00:46:22;-7.40;99.90
21184;DHT22;18176;49.502;11.754;2022-12-19T00:50:23;-7.40;99.90
21184;DHT22;18176;49.502;11.754;2022-12-19T00:54:26;-7.40;99.90
21184;DHT22;18176;49.502;11.754;2022-12-19T00:58:29;-7.40;99.90
21184;DHT22;18176;49.502;11.754;2022-12-19T01:02:36;-7.50;99.90
21184;DHT22;18176;49.502;11.754;2022-12-19T01:06:37;-7.40;99.90
21184;DHT22;18176;49.502;11.754;2022-12-19T01:10:43;-7.50;99.90
21184;DHT22;18176;49.502;11.754;2022-12-19T01:14:44;-7.40;99.90
21184;DHT22;18176;49.502;11.754;2022-12-19T01:18:44;-7.40;99.90
21184;DHT22;18176;49.502;11.754;2022-12-19T01:22:44;-7.40;99.90
21184;DHT22;18176;49.502;11.754;2022-12-19T01:26:45;-7.20;99.90
21184;DHT22;18176;49.502;11.754;2022-12-19T01:30:45;-7.20;99.90
21184;DHT22;18176;49.502;11.754;2022-12-19T01:34:49;-7.30;99.90
21184;DHT22;18176;49.502;11.754;2022-12-19T01:38:49;-7.30;99.90
21184;DHT22;18176;49.502;11.754;2022-12-19T01:42:49;-7.30;99.90
21184;DHT22;18176;49.502;11.754;2022-12-19T01:46:51;-7.30;99.90
21184;DHT22;18176;49.502;11.754;2022-12-19T01:50:58;-7.20;99.90
21184;DHT22;18176;49.502;11.754;2022-12-19T01:55:00;-7.20;99.90
21184;DHT22;18176;49.502;11.754;2022-12-19T01:59:03;-7.20;99.90
21184;DHT22;18176;49.502;11.754;2022-12-19T02:03:10;-7.10;99.90
21184;DHT22;18176;49.502;11.754;2022-12-19T02:07:16;-7.20;99.90
21184;DHT22;18176;49.502;11.754;2022-12-19T02:11:18;-7.00;99.90
21184;DHT22;18176;49.502;11.754;2022-12-19T02:15:19;-7.10;99.90
21184;DHT22;18176;49.502;11.754;2022-12-19T02:19:51;-7.00;99.90
21184;DHT22;18176;49.502;11.754;2022-12-19T02:29:12;-6.90;99.90
21184;DHT22;18176;49.502;11.754;2022-12-19T02:33:31;-6.90;99.90
21184;DHT22;18176;49.502;11.754;2022-12-19T02:37:45;-7.00;99.90
21184;DHT22;18176;49.502;11.754;2022-12-19T02:41:55;-7.00;99.90
21184;DHT22;18176;49.502;11.754;2022-12-19T02:45:57;-7.00;99.90
21184;DHT22;18176;49.502;11.754;2022-12-19T02:50:06;-6.90;99.90
21184;DHT22;18176;49.502;11.754;2022-12-19T02:54:09;-6.90;99.90
21184;DHT22;18176;49.502;11.754;2022-12-19T02:58:34;-6.90;99.90
21184;DHT22;18176;49.502;11.754;2022-12-19T03:02:48;-6.90;99.90
21184;DHT22;18176;49.502;11.754;2022-12-19T03:07:02;-6.80;99.90
21184;DHT22;18176;49.502;11.754;2022-12-19T03:11:12;-6.80;99.90
21184;DHT22;18176;49.502;11.754;2022-12-19T03:15:16;-6.90;99.90
21184;DHT22;18176;49.502;11.754;2022-12-19T03:19:18;-6.90;99.90
21184;DHT22;18176;49.502;11.754;2022-12-19T03:23:21;-6.90;99.90
21184;DHT22;18176;49.502;11.754;2022-12-19T03:27:25;-6.90;99.90
21184;DHT22;18176;49.502;11.754;2022-12-19T03:31:30;-6.90;99.90
21184;DHT22;18176;49.502;11.754;2022-12-19T03:35:36;-6.90;99.90
21184;DHT22;18176;49.502;11.754;2022-12-19T03:39:42;-6.90;99.90
21184;DHT22;18176;49.502;11.754;2022-12-19T03:43:45;-6.90;99.90
21184;DHT22;18176;49.502;11.754;2022-12-19T03:47:49;-6.90;99.90
21184;DHT22;18176;49.502;11.754;2022-12-19T03:52:00;-6.80;99.90
21184;DHT22;18176;49.502;11.754;2022-12-19T03:56:16;-6.80;99.90
21184;DHT22;18176;49.502;11.754;2022-12-19T04:00:24;-6.80;99.90
21184;DHT22;18176;49.502;11.754;2022-12-19T04:04:26;-6.80;99.90
21184;DHT22;18176;49.502;11.754;2022-12-19T04:08:29;-6.70;99.90
21184;DHT22;18176;49.502;11.754;2022-12-19T04:12:37;-6.70;99.90
21184;DHT22;18176;49.502;11.754;2022-12-19T04:16:44;-6.70;99.90
21184;DHT22;18176;49.502;11.754;2022-12-19T04:20:54;-6.70;99.90
21184;DHT22;18176;49.502;11.754;2022-12-19T04:25:02;-6.60;99.90
21184;DHT22;18176;49.502;11.754;2022-12-19T04:29:09;-6.60;99.90
21184;DHT22;18176;49.502;11.754;2022-12-19T04:33:12;-6.60;99.90
21184;DHT22;18176;49.502;11.754;2022-12-19T04:37:12;-6.60;99.90
21184;DHT22;18176;49.502;11.754;2022-12-19T04:41:13;-6.50;99.90
21184;DHT22;18176;49.502;11.754;2022-12-19T04:45:15;-6.50;99.90
21184;DHT22;18176;49.502;11.754;2022-12-19T04:49:16;-6.40;99.90
21184;DHT22;18176;49.502;11.754;2022-12-19T04:53:16;-6.40;99.90
21184;DHT22;18176;49.502;11.754;2022-12-19T04:57:17;-6.30;99.90
21184;DHT22;18176;49.502;11.754;2022-12-19T05:01:19;-6.30;99.90
21184;DHT22;18176;49.502;11.754;2022-12-19T05:05:20;-6.30;99.90
21184;DHT22;18176;49.502;11.754;2022-12-19T05:09:20;-6.30;99.90
21184;DHT22;18176;49.502;11.754;2022-12-19T05:13:21;-6.40;99.90
21184;DHT22;18176;49.502;11.754;2022-12-19T05:17:23;-6.30;99.90
21184;DHT22;18176;49.502;11.754;2022-12-19T05:21:24;-6.30;99.90
21184;DHT22;18176;49.502;11.754;2022-12-19T05:25:24;-6.30;99.90
21184;DHT22;18176;49.502;11.754;2022-12-19T05:29:24;-6.30;99.90
21184;DHT22;18176;49.502;11.754;2022-12-19T05:33:27;-6.30;99.90
21184;DHT22;18176;49.502;11.754;2022-12-19T05:37:28;-6.30;99.90
21184;DHT22;18176;49.502;11.754;2022-12-19T05:41:28;-6.20;99.90
21184;DHT22;18176;49.502;11.754;2022-12-19T05:45:28;-6.20;99.90
21184;DHT22;18176;49.502;11.754;2022-12-19T05:49:31;-6.10;99.90
21184;DHT22;18176;49.502;11.754;2022-12-19T05:53:31;-6.00;99.90
21184;DHT22;18176;49.502;11.754;2022-12-19T05:57:33;-6.00;99.90
21184;DHT22;18176;49.502;11.754;2022-12-19T06:01:33;-6.00;99.90
21184;DHT22;18176;49.502;11.754;2022-12-19T06:05:38;-6.10;99.90
21184;DHT22;18176;49.502;11.754;2022-12-19T06:09:39;-6.10;99.90
21184;DHT22;18176;49.502;11.754;2022-12-19T06:13:39;-6.10;99.90
21184;DHT22;18176;49.502;11.754;2022-12-19T06:17:40;-6.10;99.90
21184;DHT22;18176;49.502;11.754;2022-12-19T06:21:43;-6.10;99.90
21184;DHT22;18176;49.502;11.754;2022-12-19T06:25:44;-6.10;99.90
21184;DHT22;18176;49.502;11.754;2022-12-19T06:29:44;-6.10;99.90
21184;DHT22;18176;49.502;11.754;2022-12-19T06:33:44;-6.10;99.90
21184;DHT22;18176;49.502;11.754;2022-12-19T06:37:47;-6.10;99.90
21184;DHT22;18176;49.502;11.754;2022-12-19T06:41:55;-6.00;99.90
21184;DHT22;18176;49.502;11.754;2022-12-19T06:46:08;-6.00;99.90
21184;DHT22;18176;49.502;11.754;2022-12-19T06:50:09;-5.90;99.90
21184;DHT22;18176;49.502;11.754;2022-12-19T06:54:12;-5.80;99.90
21184;DHT22;18176;49.502;11.754;2022-12-19T06:58:13;-5.90;99.90
21184;DHT22;18176;49.502;11.754;2022-12-19T07:02:24;-5.80;99.90
21184;DHT22;18176;49.502;11.754;2022-12-19T07:06:27;-5.80;99.90
21184;DHT22;18176;49.502;11.754;2022-12-19T07:10:30;-5.70;99.90
21184;DHT22;18176;49.502;11.754;2022-12-19T07:14:31;-5.60;99.90
21184;DHT22;18176;49.502;11.754;2022-12-19T07:18:33;-5.60;99.90
21184;DHT22;18176;49.502;11.754;2022-12-19T07:22:36;-5.50;99.90
21184;DHT22;18176;49.502;11.754;2022-12-19T07:26:39;-5.40;99.90
21184;DHT22;18176;49.502;11.754;2022-12-19T07:30:40;-5.40;99.90
21184;DHT22;18176;49.502;11.754;2022-12-19T07:34:40;-5.30;99.90
21184;DHT22;18176;49.502;11.754;2022-12-19T07:38:41;-5.30;99.90
21184;DHT22;18176;49.502;11.754;2022-12-19T07:42:44;-5.30;99.90
21184;DHT22;18176;49.502;11.754;2022-12-19T07:46:44;-5.20;99.90
21184;DHT22;18176;49.502;11.754;2022-12-19T07:50:44;-5.20;99.90
21184;DHT22;18176;49.502;11.754;2022-12-19T07:54:45;-5.10;99.90
21184;DHT22;18176;49.502;11.754;2022-12-19T07:58:47;-4.90;99.90
21184;DHT22;18176;49.502;11.754;2022-12-19T08:02:47;-4.60;99.90
21184;DHT22;18176;49.502;11.754;2022-12-19T08:06:48;-4.50;99.90
21184;DHT22;18176;49.502;11.754;2022-12-19T08:10:48;-4.30;99.90
21184;DHT22;18176;49.502;11.754;2022-12-19T08:14:51;-4.20;99.90
21184;DHT22;18176;49.502;11.754;2022-12-19T08:18:53;-3.90;99.90
21184;DHT22;18176;49.502;11.754;2022-12-19T08:22:54;-3.70;99.90
21184;DHT22;18176;49.502;11.754;2022-12-19T08:26:54;-3.70;99.90
21184;DHT22;18176;49.502;11.754;2022-12-19T08:30:58;-3.60;99.90
21184;DHT22;18176;49.502;11.754;2022-12-19T08:34:59;-3.60;99.90
21184;DHT22;18176;49.502;11.754;2022-12-19T08:38:59;-3.60;99.90
21184;DHT22;18176;49.502;11.754;2022-12-19T08:42:59;-3.50;99.90
21184;DHT22;18176;49.502;11.754;2022-12-19T08:47:02;-3.50;99.90
21184;DHT22;18176;49.502;11.754;2022-12-19T08:51:04;-3.50;99.90
21184;DHT22;18176;49.502;11.754;2022-12-19T08:55:06;-3.40;99.90
21184;DHT22;18176;49.502;11.754;2022-12-19T08:59:08;-3.40;99.90
21184;DHT22;18176;49.502;11.754;2022-12-19T09:03:12;-3.20;99.90
21184;DHT22;18176;49.502;11.754;2022-12-19T09:07:14;-3.10;99.90
21184;DHT22;18176;49.502;11.754;2022-12-19T09:11:17;-3.10;99.90
21184;DHT22;18176;49.502;11.754;2022-12-19T09:15:18;-3.10;99.90
21184;DHT22;18176;49.502;11.754;2022-12-19T09:19:21;-3.20;99.90
21184;DHT22;18176;49.502;11.754;2022-12-19T09:23:22;-3.10;99.90
21184;DHT22;18176;49.502;11.754;2022-12-19T09:27:23;-3.20;99.90
21184;DHT22;18176;49.502;11.754;2022-12-19T09:31:24;-3.10;99.90
21184;DHT22;18176;49.502;11.754;2022-12-19T09:35:27;-3.00;99.90
21184;DHT22;18176;49.502;11.754;2022-12-19T09:39:27;-2.80;99.90
21184;DHT22;18176;49.502;11.754;2022-12-19T09:43:36;-2.80;99.90
21184;DHT22;18176;49.502;11.754;2022-12-19T09:47:55;-2.80;99.90
21184;DHT22;18176;49.502;11.754;2022-12-19T09:52:03;-2.70;99.90
21184;DHT22;18176;49.502;11.754;2022-12-19T09:56:13;-2.60;99.90
21184;DHT22;18176;49.502;11.754;2022-12-19T10:00:16;-2.50;99.90
21184;DHT22;18176;49.502;11.754;2022-12-19T10:04:18;-2.40;99.90
21184;DHT22;18176;49.502;11.754;2022-12-19T10:08:26;-2.30;99.90
21184;DHT22;18176;49.502;11.754;2022-12-19T10:12:46;-2.20;99.90
21184;DHT22;18176;49.502;11.754;2022-12-19T10:17:16;-2.10;99.90
21184;DHT22;18176;49.502;11.754;2022-12-19T10:21:30;-2.10;99.90
21184;DHT22;18176;49.502;11.754;2022-12-19T10:25:59;-2.10;99.90
21184;DHT22;18176;49.502;11.754;2022-12-19T10:30:12;-2.10;99.90
21184;DHT22;18176;49.502;11.754;2022-12-19T10:34:19;-2.10;99.90
21184;DHT22;18176;49.502;11.754;2022-12-19T10:38:25;-1.90;99.90
21184;DHT22;18176;49.502;11.754;2022-12-19T10:42:43;-1.90;99.90
21184;DHT22;18176;49.502;11.754;2022-12-19T10:46:50;-1.80;99.90
21184;DHT22;18176;49.502;11.754;2022-12-19T10:50:50;-1.60;99.90
21184;DHT22;18176;49.502;11.754;2022-12-19T10:54:50;-1.40;99.90
21184;DHT22;18176;49.502;11.754;2022-12-19T10:58:54;-1.30;99.90
21184;DHT22;18176;49.502;11.754;2022-12-19T11:03:11;-1.10;99.90
21184;DHT22;18176;49.502;11.754;2022-12-19T11:07:20;-1.00;99.90
21184;DHT22;18176;49.502;11.754;2022-12-19T11:11:21;-0.80;99.90
21184;DHT22;18176;49.502;11.754;2022-12-19T11:15:49;-0.80;99.90
21184;DHT22;18176;49.502;11.754;2022-12-19T11:29:44;-0.40;99.90
21184;DHT22;18176;49.502;11.754;2022-12-19T11:34:17;-0.40;99.90
21184;DHT22;18176;49.502;11.754;2022-12-19T11:38:26;-0.50;99.90
21184;DHT22;18176;49.502;11.754;2022-12-19T11:42:53;-0.70;99.90
21184;DHT22;18176;49.502;11.754;2022-12-19T11:47:30;-0.60;99.90
21184;DHT22;18176;49.502;11.754;2022-12-19T11:51:44;-0.70;99.90
21184;DHT22;18176;49.502;11.754;2022-12-19T11:55:54;-0.60;99.90
21184;DHT22;18176;49.502;11.754;2022-12-19T12:00:03;-0.70;99.90
21184;DHT22;18176;49.502;11.754;2022-12-19T12:04:40;-0.80;99.90
21184;DHT22;18176;49.502;11.754;2022-12-19T12:22:19;-0.70;99.90
21184;DHT22;18176;49.502;11.754;2022-12-19T12:27:01;-0.60;99.90
21184;DHT22;18176;49.502;11.754;2022-12-19T12:41:08;-0.60;99.90
21184;DHT22;18176;49.502;11.754;2022-12-19T12:45:18;-0.50;99.90
21184;DHT22;18176;49.502;11.754;2022-12-19T12:49:35;-0.40;99.90
21184;DHT22;18176;49.502;11.754;2022-12-19T12:53:44;-0.50;99.90
21184;DHT22;18176;49.502;11.754;2022-12-19T12:57:52;-0.50;99.90
21184;DHT22;18176;49.502;11.754;2022-12-19T13:02:15;-0.50;99.90
21184;DHT22;18176;49.502;11.754;2022-12-19T13:06:25;-0.50;99.90
21184;DHT22;18176;49.502;11.754;2022-12-19T13:10:31;-0.50;99.90
21184;DHT22;18176;49.502;11.754;2022-12-19T13:15:18;-0.40;99.90
21184;DHT22;18176;49.502;11.754;2022-12-19T13:19:35;-0.50;99.90
21184;DHT22;18176;49.502;11.754;2022-12-19T13:28:15;-0.70;99.90
21184;DHT22;18176;49.502;11.754;2022-12-19T13:33:08;-0.80;99.90
21184;DHT22;18176;49.502;11.754;2022-12-19T13:37:25;-0.60;99.90
21184;DHT22;18176;49.502;11.754;2022-12-19T13:41:50;-0.70;99.90
21184;DHT22;18176;49.502;11.754;2022-12-19T13:46:33;-0.70;99.90
21184;DHT22;18176;49.502;11.754;2022-12-19T13:50:40;-0.60;99.90
21184;DHT22;18176;49.502;11.754;2022-12-19T13:54:47;-0.60;99.90
21184;DHT22;18176;49.502;11.754;2022-12-19T14:09:35;-0.60;99.90
21184;DHT22;18176;49.502;11.754;2022-12-19T14:13:59;-0.60;99.90
21184;DHT22;18176;49.502;11.754;2022-12-19T14:18:25;-0.60;99.90
21184;DHT22;18176;49.502;11.754;2022-12-19T14:22:43;-0.70;99.90
21184;DHT22;18176;49.502;11.754;2022-12-19T14:26:48;-0.70;99.90
21184;DHT22;18176;49.502;11.754;2022-12-19T14:31:15;-0.70;99.90
21184;DHT22;18176;49.502;11.754;2022-12-19T14:35:19;-0.70;99.90
21184;DHT22;18176;49.502;11.754;2022-12-19T14:48:32;-0.70;99.90
21184;DHT22;18176;49.502;11.754;2022-12-19T15:03:05;-0.90;99.90
21184;DHT22;18176;49.502;11.754;2022-12-19T15:13:21;-0.90;99.90
21184;DHT22;18176;49.502;11.754;2022-12-19T15:18:12;-1.00;99.90
21184;DHT22;18176;49.502;11.754;2022-12-19T15:22:18;-1.00;99.90
21184;DHT22;18176;49.502;11.754;2022-12-19T15:26:26;-1.00;99.90
21184;DHT22;18176;49.502;11.754;2022-12-19T15:30:33;-1.00;99.90
21184;DHT22;18176;49.502;11.754;2022-12-19T15:34:36;-1.00;99.90
21184;DHT22;18176;49.502;11.754;2022-12-19T15:38:47;-1.00;99.90
21184;DHT22;18176;49.502;11.754;2022-12-19T15:42:51;-1.00;99.90
21184;DHT22;18176;49.502;11.754;2022-12-19T15:46:58;-1.10;99.90
21184;DHT22;18176;49.502;11.754;2022-12-19T15:51:01;-1.10;99.90
21184;DHT22;18176;49.502;11.754;2022-12-19T15:55:11;-1.20;99.90
21184;DHT22;18176;49.502;11.754;2022-12-19T15:59:24;-1.20;99.90
21184;DHT22;18176;49.502;11.754;2022-12-19T16:03:37;-1.20;99.90
21184;DHT22;18176;49.502;11.754;2022-12-19T16:07:39;-1.10;99.90
21184;DHT22;18176;49.502;11.754;2022-12-19T16:11:42;-1.10;99.90
21184;DHT22;18176;49.502;11.754;2022-12-19T16:15:44;-1.10;99.90
21184;DHT22;18176;49.502;11.754;2022-12-19T16:19:51;-1.10;99.90
21184;DHT22;18176;49.502;11.754;2022-12-19T16:23:53;-1.10;99.90
21184;DHT22;18176;49.502;11.754;2022-12-19T16:27:56;-1.10;99.90
21184;DHT22;18176;49.502;11.754;2022-12-19T16:32:01;-1.10;99.90
21184;DHT22;18176;49.502;11.754;2022-12-19T16:36:07;-1.10;99.90
21184;DHT22;18176;49.502;11.754;2022-12-19T16:40:14;-1.20;99.90
21184;DHT22;18176;49.502;11.754;2022-12-19T16:44:22;-1.20;99.90
21184;DHT22;18176;49.502;11.754;2022-12-19T16:48:25;-1.20;99.90
21184;DHT22;18176;49.502;11.754;2022-12-19T16:57:36;-1.20;99.90
21184;DHT22;18176;49.502;11.754;2022-12-19T17:01:36;-1.20;99.90
21184;DHT22;18176;49.502;11.754;2022-12-19T17:05:37;-1.20;99.90
21184;DHT22;18176;49.502;11.754;2022-12-19T17:09:37;-1.30;99.90
21184;DHT22;18176;49.502;11.754;2022-12-19T17:13:41;-1.30;99.90
21184;DHT22;18176;49.502;11.754;2022-12-19T17:17:44;-1.30;99.90
21184;DHT22;18176;49.502;11.754;2022-12-19T17:21:45;-1.30;99.90
21184;DHT22;18176;49.502;11.754;2022-12-19T17:25:46;-1.30;99.90
21184;DHT22;18176;49.502;11.754;2022-12-19T17:29:49;-1.30;99.90
21184;DHT22;18176;49.502;11.754;2022-12-19T17:33:50;-1.40;99.90
21184;DHT22;18176;49.502;11.754;2022-12-19T17:37:54;-1.40;99.90
21184;DHT22;18176;49.502;11.754;2022-12-19T17:41:57;-1.30;99.90
21184;DHT22;18176;49.502;11.754;2022-12-19T17:46:03;-1.30;99.90
21184;DHT22;18176;49.502;11.754;2022-12-19T17:50:05;-1.40;99.90
21184;DHT22;18176;49.502;11.754;2022-12-19T17:54:15;-1.30;99.90
21184;DHT22;18176;49.502;11.754;2022-12-19T17:58:15;-1.30;99.90
21184;DHT22;18176;49.502;11.754;2022-12-19T18:02:22;-1.20;99.90
21184;DHT22;18176;49.502;11.754;2022-12-19T18:06:25;-1.20;99.90
21184;DHT22;18176;49.502;11.754;2022-12-19T18:10:28;-1.30;99.90
21184;DHT22;18176;49.502;11.754;2022-12-19T18:14:30;-1.40;99.90
21184;DHT22;18176;49.502;11.754;2022-12-19T18:18:34;-1.40;99.90
21184;DHT22;18176;49.502;11.754;2022-12-19T18:22:34;-1.50;99.90
21184;DHT22;18176;49.502;11.754;2022-12-19T18:26:35;-1.50;99.90
21184;DHT22;18176;49.502;11.754;2022-12-19T18:40:19;-1.50;99.90
21184;DHT22;18176;49.502;11.754;2022-12-19T18:44:27;-1.50;99.90
21184;DHT22;18176;49.502;11.754;2022-12-19T18:48:30;-1.50;99.90
21184;DHT22;18176;49.502;11.754;2022-12-19T18:52:33;-1.60;99.90
21184;DHT22;18176;49.502;11.754;2022-12-19T18:56:35;-1.60;99.90
21184;DHT22;18176;49.502;11.754;2022-12-19T19:00:37;-1.60;99.90
21184;DHT22;18176;49.502;11.754;2022-12-19T19:04:38;-1.60;99.90
21184;DHT22;18176;49.502;11.754;2022-12-19T19:08:40;-1.50;99.90
21184;DHT22;18176;49.502;11.754;2022-12-19T19:12:57;-1.50;99.90
21184;DHT22;18176;49.502;11.754;2022-12-19T19:17:21;-1.40;99.90
21184;DHT22;18176;49.502;11.754;2022-12-19T19:21:31;-1.40;99.90
21184;DHT22;18176;49.502;11.754;2022-12-19T19:25:33;-1.50;99.90
21184;DHT22;18176;49.502;11.754;2022-12-19T19:29:39;-1.40;99.90
21184;DHT22;18176;49.502;11.754;2022-12-19T19:33:42;-1.50;99.90
21184;DHT22;18176;49.502;11.754;2022-12-19T19:37:46;-1.60;99.90
21184;DHT22;18176;49.502;11.754;2022-12-19T19:41:49;-1.60;99.90
21184;DHT22;18176;49.502;11.754;2022-12-19T19:45:54;-1.70;99.90
21184;DHT22;18176;49.502;11.754;2022-12-19T19:49:55;-1.80;99.90
21184;DHT22;18176;49.502;11.754;2022-12-19T19:53:55;-1.80;99.90
21184;DHT22;18176;49.502;11.754;2022-12-19T19:57:56;-1.80;99.90
21184;DHT22;18176;49.502;11.754;2022-12-19T20:01:58;-1.80;99.90
21184;DHT22;18176;49.502;11.754;2022-12-19T20:05:59;-1.80;99.90
21184;DHT22;18176;49.502;11.754;2022-12-19T20:10:00;-1.80;99.90
21184;DHT22;18176;49.502;11.754;2022-12-19T20:14:00;-1.80;99.90
21184;DHT22;18176;49.502;11.754;2022-12-19T20:18:03;-1.80;99.90
21184;DHT22;18176;49.502;11.754;2022-12-19T20:22:04;-1.80;99.90
21184;DHT22;18176;49.502;11.754;2022-12-19T20:26:05;-1.70;99.90
21184;DHT22;18176;49.502;11.754;2022-12-19T20:30:07;-1.70;99.90
21184;DHT22;18176;49.502;11.754;2022-12-19T20:34:10;-1.70;99.90
21184;DHT22;18176;49.502;11.754;2022-12-19T20:38:11;-1.60;99.90
21184;DHT22;18176;49.502;11.754;2022-12-19T20:42:12;-1.50;99.90
21184;DHT22;18176;49.502;11.754;2022-12-19T20:46:15;-1.50;99.90
21184;DHT22;18176;49.502;11.754;2022-12-19T20:50:19;-1.50;99.90
21184;DHT22;18176;49.502;11.754;2022-12-19T20:54:20;-1.50;99.90
21184;DHT22;18176;49.502;11.754;2022-12-19T20:58:20;-1.60;99.90
21184;DHT22;18176;49.502;11.754;2022-12-19T21:02:20;-1.70;99.90
21184;DHT22;18176;49.502;11.754;2022-12-19T21:06:24;-1.80;99.90
21184;DHT22;18176;49.502;11.754;2022-12-19T21:10:24;-1.80;99.90
21184;DHT22;18176;49.502;11.754;2022-12-19T21:14:24;-1.90;99.90
21184;DHT22;18176;49.502;11.754;2022-12-19T21:18:25;-1.90;99.90
21184;DHT22;18176;49.502;11.754;2022-12-19T21:22:28;-1.90;99.90
21184;DHT22;18176;49.502;11.754;2022-12-19T21:26:28;-1.80;99.90
21184;DHT22;18176;49.502;11.754;2022-12-19T21:30:28;-1.80;99.90
21184;DHT22;18176;49.502;11.754;2022-12-19T21:34:28;-1.80;99.90
21184;DHT22;18176;49.502;11.754;2022-12-19T21:38:31;-1.70;99.90
21184;DHT22;18176;49.502;11.754;2022-12-19T21:42:31;-1.80;99.90
21184;DHT22;18176;49.502;11.754;2022-12-19T21:46:32;-1.80;99.90
21184;DHT22;18176;49.502;11.754;2022-12-19T21:50:33;-1.80;99.90
21184;DHT22;18176;49.502;11.754;2022-12-19T21:54:36;-1.90;99.90
21184;DHT22;18176;49.502;11.754;2022-12-19T21:58:36;-1.80;99.90
21184;DHT22;18176;49.502;11.754;2022-12-19T22:02:36;-1.80;99.90
21184;DHT22;18176;49.502;11.754;2022-12-19T22:06:57;-1.80;99.90
21184;DHT22;18176;49.502;11.754;2022-12-19T22:11:00;-1.90;99.90
21184;DHT22;18176;49.502;11.754;2022-12-19T22:15:00;-1.80;99.90
21184;DHT22;18176;49.502;11.754;2022-12-19T22:19:00;-1.80;99.90
21184;DHT22;18176;49.502;11.754;2022-12-19T22:23:01;-1.90;99.90
21184;DHT22;18176;49.502;11.754;2022-12-19T22:27:11;-1.90;99.90
21184;DHT22;18176;49.502;11.754;2022-12-19T22:31:17;-1.90;99.90
21184;DHT22;18176;49.502;11.754;2022-12-19T22:35:19;-1.90;99.90
21184;DHT22;18176;49.502;11.754;2022-12-19T22:39:19;-1.90;99.90
21184;DHT22;18176;49.502;11.754;2022-12-19T22:43:22;-1.90;99.90
21184;DHT22;18176;49.502;11.754;2022-12-19T22:47:22;-1.90;99.90
21184;DHT22;18176;49.502;11.754;2022-12-19T22:51:23;-1.80;99.90
21184;DHT22;18176;49.502;11.754;2022-12-19T22:55:24;-1.80;99.90
21184;DHT22;18176;49.502;11.754;2022-12-19T22:59:27;-1.90;99.90
21184;DHT22;18176;49.502;11.754;2022-12-19T23:03:27;-1.80;99.90
21184;DHT22;18176;49.502;11.754;2022-12-19T23:07:27;-1.80;99.90
21184;DHT22;18176;49.502;11.754;2022-12-19T23:11:30;-1.80;99.90
21184;DHT22;18176;49.502;11.754;2022-12-19T23:15:36;-1.70;99.90
21184;DHT22;18176;49.502;11.754;2022-12-19T23:19:36;-1.60;99.90
21184;DHT22;18176;49.502;11.754;2022-12-19T23:23:37;-1.60;99.90
21184;DHT22;18176;49.502;11.754;2022-12-19T23:27:39;-1.70;99.90
21184;DHT22;18176;49.502;11.754;2022-12-19T23:31:44;-1.60;99.90
21184;DHT22;18176;49.502;11.754;2022-12-19T23:35:45;-1.60;99.90
21184;DHT22;18176;49.502;11.754;2022-12-19T23:39:45;-1.50;99.90
21184;DHT22;18176;49.502;11.754;2022-12-19T23:43:46;-1.50;99.90
21184;DHT22;18176;49.502;11.754;2022-12-19T23:47:49;-1.50;99.90
21184;DHT22;18176;49.502;11.754;2022-12-19T23:51:49;-1.50;99.90
21184;DHT22;18176;49.502;11.754;2022-12-19T23:55:50;-1.50;99.90
21184;DHT22;18176;49.502;11.754;2022-12-19T23:59:50;-1.50;99.90
